sensor_id;sensor_type;location;lat;lon;timestamp;pressure;altitude;pressure_sealevel;temperature;humidity
47716;BME280;33476;50.984;3.538;2022-07-29T00:00:57;101695.13;;;22.33;45.16
47716;BME280;33476;50.984;3.538;2022-07-29T00:03:22;101697.22;;;22.30;45.23
47716;BME280;33476;50.984;3.538;2022-07-29T00:05:48;101692.28;;;22.25;45.33
47716;BME280;33476;50.984;3.538;2022-07-29T00:08:13;101689.88;;;22.22;45.47
47716;BME280;33476;50.984;3.538;2022-07-29T00:10:41;101684.91;;;22.18;45.51
47716;BME280;33476;50.984;3.538;2022-07-29T00:13:06;101679.03;;;22.14;45.55
47716;BME280;33476;50.984;3.538;2022-07-29T00:15:32;101689.94;;;22.11;45.63
47716;BME280;33476;50.984;3.538;2022-07-29T00:17:58;101681.34;;;22.07;45.80
47716;BME280;33476;50.984;3.538;2022-07-29T00:20:23;101674.44;;;22.05;46.00
47716;BME280;33476;50.984;3.538;2022-07-29T00:22:48;101678.44;;;21.99;45.97
47716;BME280;33476;50.984;3.538;2022-07-29T00:25:14;101679.69;;;21.95;46.18
47716;BME280;33476;50.984;3.538;2022-07-29T00:27:39;101683.41;;;21.93;46.13
47716;BME280;33476;50.984;3.538;2022-07-29T00:30:06;101682.00;;;21.88;46.07
47716;BME280;33476;50.984;3.538;2022-07-29T00:32:32;101677.88;;;21.84;46.39
47716;BME280;33476;50.984;3.538;2022-07-29T00:34:57;101676.31;;;21.82;46.38
47716;BME280;33476;50.984;3.538;2022-07-29T00:37:41;101672.94;;;21.80;46.38
47716;BME280;33476;50.984;3.538;2022-07-29T00:40:07;101673.31;;;21.75;46.67
47716;BME280;33476;50.984;3.538;2022-07-29T00:42:43;101675.75;;;21.67;46.87
47716;BME280;33476;50.984;3.538;2022-07-29T00:45:09;101659.44;;;21.72;46.80
47716;BME280;33476;50.984;3.538;2022-07-29T00:47:34;101670.22;;;21.70;46.76
47716;BME280;33476;50.984;3.538;2022-07-29T00:50:00;101676.72;;;21.66;46.96
47716;BME280;33476;50.984;3.538;2022-07-29T00:52:25;101672.38;;;21.65;47.17
47716;BME280;33476;50.984;3.538;2022-07-29T00:54:51;101668.03;;;21.64;47.39
47716;BME280;33476;50.984;3.538;2022-07-29T00:57:16;101662.84;;;21.63;47.45
47716;BME280;33476;50.984;3.538;2022-07-29T00:59:42;101664.91;;;21.59;47.40
47716;BME280;33476;50.984;3.538;2022-07-29T01:02:07;101667.69;;;21.57;47.31
47716;BME280;33476;50.984;3.538;2022-07-29T01:04:33;101658.16;;;21.55;47.25
47716;BME280;33476;50.984;3.538;2022-07-29T01:07:01;101662.63;;;21.54;47.44
47716;BME280;33476;50.984;3.538;2022-07-29T01:09:27;101653.09;;;21.52;47.35
47716;BME280;33476;50.984;3.538;2022-07-29T01:11:53;101649.69;;;21.50;47.59
47716;BME280;33476;50.984;3.538;2022-07-29T01:14:18;101652.75;;;21.45;47.59
47716;BME280;33476;50.984;3.538;2022-07-29T01:16:51;101648.03;;;21.38;47.78
47716;BME280;33476;50.984;3.538;2022-07-29T01:19:49;101653.97;;;21.30;47.85
47716;BME280;33476;50.984;3.538;2022-07-29T01:25:45;101653.22;;;21.17;48.32
47716;BME280;33476;50.984;3.538;2022-07-29T01:30:58;101645.84;;;21.09;48.31
47716;BME280;33476;50.984;3.538;2022-07-29T01:33:26;101645.38;;;21.04;48.30
47716;BME280;33476;50.984;3.538;2022-07-29T01:36:16;101648.63;;;20.96;48.48
47716;BME280;33476;50.984;3.538;2022-07-29T01:38:45;101648.00;;;20.93;48.76
47716;BME280;33476;50.984;3.538;2022-07-29T01:41:18;101640.44;;;20.88;48.68
47716;BME280;33476;50.984;3.538;2022-07-29T01:43:57;101633.66;;;20.84;48.85
47716;BME280;33476;50.984;3.538;2022-07-29T01:46:35;101633.19;;;20.79;49.07
47716;BME280;33476;50.984;3.538;2022-07-29T01:49:14;101640.53;;;20.75;48.83
47716;BME280;33476;50.984;3.538;2022-07-29T01:51:47;101643.31;;;20.74;49.11
47716;BME280;33476;50.984;3.538;2022-07-29T01:54:24;101641.97;;;20.68;49.19
47716;BME280;33476;50.984;3.538;2022-07-29T01:56:53;101636.19;;;20.63;49.13
47716;BME280;33476;50.984;3.538;2022-07-29T01:59:21;101639.44;;;20.56;49.39
47716;BME280;33476;50.984;3.538;2022-07-29T02:01:47;101637.75;;;20.55;49.27
47716;BME280;33476;50.984;3.538;2022-07-29T02:04:15;101635.44;;;20.50;49.55
47716;BME280;33476;50.984;3.538;2022-07-29T02:06:42;101640.44;;;20.42;49.67
47716;BME280;33476;50.984;3.538;2022-07-29T02:09:10;101632.59;;;20.40;49.86
47716;BME280;33476;50.984;3.538;2022-07-29T02:11:38;101637.31;;;20.37;49.92
47716;BME280;33476;50.984;3.538;2022-07-29T02:14:05;101634.16;;;20.32;49.60
47716;BME280;33476;50.984;3.538;2022-07-29T02:16:32;101634.41;;;20.29;49.93
47716;BME280;33476;50.984;3.538;2022-07-29T02:19:01;101637.50;;;20.23;50.25
47716;BME280;33476;50.984;3.538;2022-07-29T02:21:27;101635.94;;;20.20;50.32
47716;BME280;33476;50.984;3.538;2022-07-29T02:23:54;101632.66;;;20.16;50.48
47716;BME280;33476;50.984;3.538;2022-07-29T02:26:23;101634.06;;;20.09;50.54
47716;BME280;33476;50.984;3.538;2022-07-29T02:28:51;101635.16;;;20.07;50.51
47716;BME280;33476;50.984;3.538;2022-07-29T02:31:22;101636.25;;;20.04;50.63
47716;BME280;33476;50.984;3.538;2022-07-29T02:33:48;101637.81;;;20.07;50.58
47716;BME280;33476;50.984;3.538;2022-07-29T02:36:15;101628.41;;;20.03;50.73
47716;BME280;33476;50.984;3.538;2022-07-29T02:38:43;101638.13;;;20.02;50.67
47716;BME280;33476;50.984;3.538;2022-07-29T02:41:28;101628.63;;;20.00;50.89
47716;BME280;33476;50.984;3.538;2022-07-29T02:43:57;101628.50;;;20.01;51.00
47716;BME280;33476;50.984;3.538;2022-07-29T02:46:28;101637.53;;;19.99;51.18
47716;BME280;33476;50.984;3.538;2022-07-29T02:49:04;101629.81;;;19.96;51.01
47716;BME280;33476;50.984;3.538;2022-07-29T02:51:42;101632.06;;;19.89;51.05
47716;BME280;33476;50.984;3.538;2022-07-29T02:54:11;101631.13;;;19.90;51.28
47716;BME280;33476;50.984;3.538;2022-07-29T02:56:40;101634.84;;;19.87;51.09
47716;BME280;33476;50.984;3.538;2022-07-29T02:59:10;101636.75;;;19.85;51.25
47716;BME280;33476;50.984;3.538;2022-07-29T03:01:39;101635.06;;;19.84;51.27
47716;BME280;33476;50.984;3.538;2022-07-29T03:04:06;101637.72;;;19.84;51.24
47716;BME280;33476;50.984;3.538;2022-07-29T03:06:34;101642.28;;;19.82;51.20
47716;BME280;33476;50.984;3.538;2022-07-29T03:08:59;101631.16;;;19.77;51.43
47716;BME280;33476;50.984;3.538;2022-07-29T03:11:25;101633.19;;;19.74;51.40
47716;BME280;33476;50.984;3.538;2022-07-29T03:13:51;101632.25;;;19.75;51.21
47716;BME280;33476;50.984;3.538;2022-07-29T03:16:19;101630.56;;;19.74;51.64
47716;BME280;33476;50.984;3.538;2022-07-29T03:18:44;101630.66;;;19.72;51.62
47716;BME280;33476;50.984;3.538;2022-07-29T03:21:10;101636.28;;;19.68;51.55
47716;BME280;33476;50.984;3.538;2022-07-29T03:23:36;101646.06;;;19.67;51.69
47716;BME280;33476;50.984;3.538;2022-07-29T03:26:01;101646.28;;;19.64;51.46
47716;BME280;33476;50.984;3.538;2022-07-29T03:28:26;101646.50;;;19.61;51.61
47716;BME280;33476;50.984;3.538;2022-07-29T03:30:52;101646.84;;;19.56;51.58
47716;BME280;33476;50.984;3.538;2022-07-29T03:33:18;101647.03;;;19.53;51.68
47716;BME280;33476;50.984;3.538;2022-07-29T03:35:44;101656.03;;;19.51;51.80
47716;BME280;33476;50.984;3.538;2022-07-29T03:38:09;101648.31;;;19.48;51.75
47716;BME280;33476;50.984;3.538;2022-07-29T03:40:46;101648.88;;;19.40;52.11
47716;BME280;33476;50.984;3.538;2022-07-29T03:43:15;101647.91;;;19.41;52.11
47716;BME280;33476;50.984;3.538;2022-07-29T03:45:44;101649.72;;;19.41;52.17
47716;BME280;33476;50.984;3.538;2022-07-29T03:48:14;101646.34;;;19.39;52.16
47716;BME280;33476;50.984;3.538;2022-07-29T03:50:40;101652.47;;;19.39;52.26
47716;BME280;33476;50.984;3.538;2022-07-29T03:53:06;101650.69;;;19.40;52.30
47716;BME280;33476;50.984;3.538;2022-07-29T03:55:37;101650.16;;;19.34;52.51
47716;BME280;33476;50.984;3.538;2022-07-29T03:58:04;101655.34;;;19.36;52.58
47716;BME280;33476;50.984;3.538;2022-07-29T04:00:32;101648.34;;;19.35;52.65
47716;BME280;33476;50.984;3.538;2022-07-29T04:02:58;101646.66;;;19.34;52.61
47716;BME280;33476;50.984;3.538;2022-07-29T04:05:24;101648.56;;;19.32;52.43
47716;BME280;33476;50.984;3.538;2022-07-29T04:07:49;101653.88;;;19.32;52.70
47716;BME280;33476;50.984;3.538;2022-07-29T04:10:15;101648.81;;;19.29;52.79
47716;BME280;33476;50.984;3.538;2022-07-29T04:12:42;101656.00;;;19.27;52.68
47716;BME280;33476;50.984;3.538;2022-07-29T04:15:08;101658.88;;;19.24;52.85
47716;BME280;33476;50.984;3.538;2022-07-29T04:17:33;101657.41;;;19.20;52.76
47716;BME280;33476;50.984;3.538;2022-07-29T04:19:59;101664.72;;;19.16;53.13
47716;BME280;33476;50.984;3.538;2022-07-29T04:22:24;101661.84;;;19.19;53.30
47716;BME280;33476;50.984;3.538;2022-07-29T04:24:49;101654.84;;;19.18;52.98
47716;BME280;33476;50.984;3.538;2022-07-29T04:27:15;101661.44;;;19.13;53.34
47716;BME280;33476;50.984;3.538;2022-07-29T04:29:40;101662.91;;;19.17;53.43
47716;BME280;33476;50.984;3.538;2022-07-29T04:32:06;101669.88;;;19.18;53.17
47716;BME280;33476;50.984;3.538;2022-07-29T04:34:31;101666.81;;;19.11;53.28
47716;BME280;33476;50.984;3.538;2022-07-29T04:36:56;101678.28;;;19.12;53.79
47716;BME280;33476;50.984;3.538;2022-07-29T04:39:22;101675.41;;;19.15;53.36
47716;BME280;33476;50.984;3.538;2022-07-29T04:41:47;101679.88;;;19.14;53.35
47716;BME280;33476;50.984;3.538;2022-07-29T04:44:12;101683.47;;;19.13;53.37
47716;BME280;33476;50.984;3.538;2022-07-29T04:46:38;101683.47;;;19.13;53.80
47716;BME280;33476;50.984;3.538;2022-07-29T04:49:04;101684.09;;;19.17;53.54
47716;BME280;33476;50.984;3.538;2022-07-29T04:51:29;101684.09;;;19.17;53.79
47716;BME280;33476;50.984;3.538;2022-07-29T04:53:55;101688.66;;;19.15;54.00
47716;BME280;33476;50.984;3.538;2022-07-29T04:56:20;101690.13;;;19.19;54.14
47716;BME280;33476;50.984;3.538;2022-07-29T04:58:46;101694.25;;;19.23;54.26
47716;BME280;33476;50.984;3.538;2022-07-29T05:01:11;101695.09;;;19.23;54.22
47716;BME280;33476;50.984;3.538;2022-07-29T05:03:36;101690.53;;;19.25;54.23
47716;BME280;33476;50.984;3.538;2022-07-29T05:06:02;101689.28;;;19.31;54.44
47716;BME280;33476;50.984;3.538;2022-07-29T05:08:27;101688.31;;;19.32;54.28
47716;BME280;33476;50.984;3.538;2022-07-29T05:10:52;101690.00;;;19.33;54.56
47716;BME280;33476;50.984;3.538;2022-07-29T05:13:18;101698.69;;;19.35;54.62
47716;BME280;33476;50.984;3.538;2022-07-29T05:15:43;101693.28;;;19.36;54.63
47716;BME280;33476;50.984;3.538;2022-07-29T05:18:08;101703.56;;;19.41;54.79
47716;BME280;33476;50.984;3.538;2022-07-29T05:20:34;101694.53;;;19.44;54.72
47716;BME280;33476;50.984;3.538;2022-07-29T05:23:00;101699.63;;;19.47;54.78
47716;BME280;33476;50.984;3.538;2022-07-29T05:25:27;101694.09;;;19.50;54.85
47716;BME280;33476;50.984;3.538;2022-07-29T05:27:53;101691.13;;;19.54;54.59
47716;BME280;33476;50.984;3.538;2022-07-29T05:30:18;101690.94;;;19.57;54.89
47716;BME280;33476;50.984;3.538;2022-07-29T05:32:44;101688.88;;;19.61;54.73
47716;BME280;33476;50.984;3.538;2022-07-29T05:35:10;101690.50;;;19.63;54.68
47716;BME280;33476;50.984;3.538;2022-07-29T05:37:35;101699.06;;;19.67;54.61
47716;BME280;33476;50.984;3.538;2022-07-29T05:40:01;101703.09;;;19.73;54.70
47716;BME280;33476;50.984;3.538;2022-07-29T05:42:27;101698.19;;;19.79;54.74
47716;BME280;33476;50.984;3.538;2022-07-29T05:44:53;101700.59;;;19.82;54.45
47716;BME280;33476;50.984;3.538;2022-07-29T05:47:19;101709.81;;;19.89;54.32
47716;BME280;33476;50.984;3.538;2022-07-29T05:49:44;101708.41;;;19.97;54.25
47716;BME280;33476;50.984;3.538;2022-07-29T05:52:09;101711.47;;;20.03;54.52
47716;BME280;33476;50.984;3.538;2022-07-29T05:54:35;101710.25;;;20.07;54.28
47716;BME280;33476;50.984;3.538;2022-07-29T05:57:02;101716.81;;;20.14;54.06
47716;BME280;33476;50.984;3.538;2022-07-29T05:59:28;101707.31;;;20.23;54.19
47716;BME280;33476;50.984;3.538;2022-07-29T06:01:54;101710.97;;;20.33;54.26
47716;BME280;33476;50.984;3.538;2022-07-29T06:04:19;101710.50;;;20.39;54.02
47716;BME280;33476;50.984;3.538;2022-07-29T06:06:44;101712.88;;;20.44;53.86
47716;BME280;33476;50.984;3.538;2022-07-29T06:09:10;101711.53;;;20.50;53.78
47716;BME280;33476;50.984;3.538;2022-07-29T06:11:36;101714.59;;;20.56;53.94
47716;BME280;33476;50.984;3.538;2022-07-29T06:14:01;101712.19;;;20.64;53.82
47716;BME280;33476;50.984;3.538;2022-07-29T06:16:28;101721.50;;;20.70;53.61
47716;BME280;33476;50.984;3.538;2022-07-29T06:18:53;101719.97;;;20.79;53.49
47716;BME280;33476;50.984;3.538;2022-07-29T06:21:19;101715.75;;;20.87;53.57
47716;BME280;33476;50.984;3.538;2022-07-29T06:23:44;101721.06;;;20.98;53.37
47716;BME280;33476;50.984;3.538;2022-07-29T06:26:10;101723.00;;;21.08;53.01
47716;BME280;33476;50.984;3.538;2022-07-29T06:28:36;101730.13;;;21.18;52.80
47716;BME280;33476;50.984;3.538;2022-07-29T06:31:01;101726.03;;;21.25;52.81
47716;BME280;33476;50.984;3.538;2022-07-29T06:33:27;101730.66;;;21.35;52.92
47716;BME280;33476;50.984;3.538;2022-07-29T06:35:52;101729.69;;;21.47;52.51
47716;BME280;33476;50.984;3.538;2022-07-29T06:38:19;101726.16;;;21.57;51.71
47716;BME280;33476;50.984;3.538;2022-07-29T06:40:45;101722.66;;;21.68;52.12
47716;BME280;33476;50.984;3.538;2022-07-29T06:43:38;101722.63;;;21.79;51.44
47716;BME280;33476;50.984;3.538;2022-07-29T06:46:06;101729.25;;;21.96;51.14
47716;BME280;33476;50.984;3.538;2022-07-29T06:48:33;101724.84;;;22.06;50.89
47716;BME280;33476;50.984;3.538;2022-07-29T06:50:59;101731.63;;;22.22;50.87
47716;BME280;33476;50.984;3.538;2022-07-29T06:53:25;101727.53;;;22.38;50.03
47716;BME280;33476;50.984;3.538;2022-07-29T06:55:51;101719.06;;;22.45;49.57
47716;BME280;33476;50.984;3.538;2022-07-29T06:58:16;101725.16;;;22.56;49.07
47716;BME280;33476;50.984;3.538;2022-07-29T07:00:44;101730.81;;;22.63;49.20
47716;BME280;33476;50.984;3.538;2022-07-29T07:03:10;101740.56;;;22.74;48.93
47716;BME280;33476;50.984;3.538;2022-07-29T07:05:35;101740.75;;;22.82;48.52
47716;BME280;33476;50.984;3.538;2022-07-29T07:08:01;101740.53;;;22.85;48.16
47716;BME280;33476;50.984;3.538;2022-07-29T07:10:26;101740.97;;;22.90;48.19
47716;BME280;33476;50.984;3.538;2022-07-29T07:12:52;101741.44;;;22.95;47.63
47716;BME280;33476;50.984;3.538;2022-07-29T07:15:17;101740.19;;;22.99;47.89
47716;BME280;33476;50.984;3.538;2022-07-29T07:17:50;101742.31;;;23.05;47.39
47716;BME280;33476;50.984;3.538;2022-07-29T07:20:16;101739.53;;;23.07;47.73
47716;BME280;33476;50.984;3.538;2022-07-29T07:22:42;101750.50;;;23.13;47.62
47716;BME280;33476;50.984;3.538;2022-07-29T07:25:07;101751.53;;;23.22;47.56
47716;BME280;33476;50.984;3.538;2022-07-29T07:27:33;101746.38;;;23.30;47.85
47716;BME280;33476;50.984;3.538;2022-07-29T07:29:58;101745.84;;;23.36;47.70
47716;BME280;33476;50.984;3.538;2022-07-29T07:32:23;101749.53;;;23.45;47.41
47716;BME280;33476;50.984;3.538;2022-07-29T07:34:49;101748.31;;;23.59;47.15
47716;BME280;33476;50.984;3.538;2022-07-29T07:37:14;101748.25;;;23.70;47.14
47716;BME280;33476;50.984;3.538;2022-07-29T07:39:40;101749.09;;;23.80;46.81
47716;BME280;33476;50.984;3.538;2022-07-29T07:42:06;101747.19;;;23.92;46.46
47716;BME280;33476;50.984;3.538;2022-07-29T07:44:31;101746.88;;;23.95;46.35
47716;BME280;33476;50.984;3.538;2022-07-29T07:46:56;101744.78;;;23.98;45.80
47716;BME280;33476;50.984;3.538;2022-07-29T07:49:22;101747.75;;;24.05;45.72
47716;BME280;33476;50.984;3.538;2022-07-29T07:51:47;101748.31;;;24.08;45.77
47716;BME280;33476;50.984;3.538;2022-07-29T07:54:13;101750.56;;;24.13;46.15
47716;BME280;33476;50.984;3.538;2022-07-29T07:56:38;101753.81;;;24.17;46.17
47716;BME280;33476;50.984;3.538;2022-07-29T07:59:03;101753.66;;;24.18;45.68
47716;BME280;33476;50.984;3.538;2022-07-29T08:01:29;101751.69;;;24.20;45.75
47716;BME280;33476;50.984;3.538;2022-07-29T08:03:54;101754.50;;;24.28;45.44
47716;BME280;33476;50.984;3.538;2022-07-29T08:06:20;101756.50;;;24.36;45.21
47716;BME280;33476;50.984;3.538;2022-07-29T08:08:45;101759.47;;;24.43;45.63
47716;BME280;33476;50.984;3.538;2022-07-29T08:11:10;101752.69;;;24.48;45.12
47716;BME280;33476;50.984;3.538;2022-07-29T08:13:37;101761.44;;;24.50;45.64
47716;BME280;33476;50.984;3.538;2022-07-29T08:16:02;101767.88;;;24.57;45.40
47716;BME280;33476;50.984;3.538;2022-07-29T08:18:37;101757.22;;;24.67;45.33
47716;BME280;33476;50.984;3.538;2022-07-29T08:21:03;101760.69;;;24.77;44.69
47716;BME280;33476;50.984;3.538;2022-07-29T08:23:29;101753.22;;;24.81;44.84
47716;BME280;33476;50.984;3.538;2022-07-29T08:26:03;101761.22;;;24.90;45.11
47716;BME280;33476;50.984;3.538;2022-07-29T08:28:29;101761.78;;;25.04;44.36
47716;BME280;33476;50.984;3.538;2022-07-29T08:30:54;101752.75;;;25.14;44.07
47716;BME280;33476;50.984;3.538;2022-07-29T08:33:20;101763.19;;;25.17;44.15
47716;BME280;33476;50.984;3.538;2022-07-29T08:35:45;101766.13;;;25.24;44.35
47716;BME280;33476;50.984;3.538;2022-07-29T08:38:10;101763.56;;;25.32;43.92
47716;BME280;33476;50.984;3.538;2022-07-29T08:40:36;101766.03;;;25.43;43.80
47716;BME280;33476;50.984;3.538;2022-07-29T08:43:08;101756.59;;;25.49;43.88
47716;BME280;33476;50.984;3.538;2022-07-29T08:48:11;101763.09;;;25.74;43.74
47716;BME280;33476;50.984;3.538;2022-07-29T08:50:38;101763.56;;;25.87;43.93
47716;BME280;33476;50.984;3.538;2022-07-29T08:53:05;101760.81;;;25.97;42.37
47716;BME280;33476;50.984;3.538;2022-07-29T08:55:32;101764.06;;;26.00;42.20
47716;BME280;33476;50.984;3.538;2022-07-29T08:57:58;101764.00;;;26.10;41.98
47716;BME280;33476;50.984;3.538;2022-07-29T09:00:25;101759.63;;;26.27;42.18
47716;BME280;33476;50.984;3.538;2022-07-29T09:02:56;101760.13;;;26.40;41.58
47716;BME280;33476;50.984;3.538;2022-07-29T09:05:23;101763.09;;;26.55;41.42
47716;BME280;33476;50.984;3.538;2022-07-29T09:07:50;101757.28;;;26.59;40.63
47716;BME280;33476;50.984;3.538;2022-07-29T09:10:15;101762.69;;;26.68;40.39
47716;BME280;33476;50.984;3.538;2022-07-29T09:12:41;101751.88;;;26.77;39.73
47716;BME280;33476;50.984;3.538;2022-07-29T09:15:06;101754.44;;;26.87;39.40
47716;BME280;33476;50.984;3.538;2022-07-29T09:17:46;101755.66;;;26.93;39.40
47716;BME280;33476;50.984;3.538;2022-07-29T09:20:14;101756.47;;;27.11;39.36
47716;BME280;33476;50.984;3.538;2022-07-29T09:22:40;101759.69;;;27.14;38.58
47716;BME280;33476;50.984;3.538;2022-07-29T09:25:06;101760.53;;;27.15;38.54
47716;BME280;33476;50.984;3.538;2022-07-29T09:27:32;101762.69;;;27.11;38.23
47716;BME280;33476;50.984;3.538;2022-07-29T09:30:00;101763.91;;;27.17;37.86
47716;BME280;33476;50.984;3.538;2022-07-29T09:32:26;101754.53;;;27.21;38.31
47716;BME280;33476;50.984;3.538;2022-07-29T09:35:15;101748.34;;;27.29;37.89
47716;BME280;33476;50.984;3.538;2022-07-29T09:37:42;101748.13;;;27.48;37.16
47716;BME280;33476;50.984;3.538;2022-07-29T09:40:12;101754.50;;;27.55;37.63
47716;BME280;33476;50.984;3.538;2022-07-29T09:42:37;101759.91;;;27.63;37.23
47716;BME280;33476;50.984;3.538;2022-07-29T09:45:03;101752.75;;;27.72;37.27
47716;BME280;33476;50.984;3.538;2022-07-29T09:47:45;101754.97;;;27.77;36.44
47716;BME280;33476;50.984;3.538;2022-07-29T09:50:12;101761.03;;;27.87;36.14
47716;BME280;33476;50.984;3.538;2022-07-29T09:53:03;101757.28;;;27.71;35.57
47716;BME280;33476;50.984;3.538;2022-07-29T09:55:29;101753.75;;;27.71;35.11
47716;BME280;33476;50.984;3.538;2022-07-29T09:58:14;101758.75;;;27.66;35.46
47716;BME280;33476;50.984;3.538;2022-07-29T10:00:42;101754.13;;;27.76;35.05
47716;BME280;33476;50.984;3.538;2022-07-29T10:03:08;101753.31;;;27.84;34.61
47716;BME280;33476;50.984;3.538;2022-07-29T10:05:34;101764.25;;;27.90;35.03
47716;BME280;33476;50.984;3.538;2022-07-29T10:07:59;101758.53;;;28.02;35.40
47716;BME280;33476;50.984;3.538;2022-07-29T10:10:33;101748.00;;;28.08;35.40
47716;BME280;33476;50.984;3.538;2022-07-29T10:13:07;101749.50;;;28.19;35.05
47716;BME280;33476;50.984;3.538;2022-07-29T10:15:35;101751.75;;;28.32;34.49
47716;BME280;33476;50.984;3.538;2022-07-29T10:18:07;101741.50;;;28.43;34.37
47716;BME280;33476;50.984;3.538;2022-07-29T10:20:33;101749.22;;;28.54;33.62
47716;BME280;33476;50.984;3.538;2022-07-29T10:22:59;101748.38;;;28.54;33.15
47716;BME280;33476;50.984;3.538;2022-07-29T10:25:25;101744.53;;;28.57;33.44
47716;BME280;33476;50.984;3.538;2022-07-29T10:27:50;101747.03;;;28.66;33.48
47716;BME280;33476;50.984;3.538;2022-07-29T10:30:17;101748.53;;;28.61;32.87
47716;BME280;33476;50.984;3.538;2022-07-29T10:32:51;101750.56;;;28.50;32.99
47716;BME280;33476;50.984;3.538;2022-07-29T10:40:54;101746.16;;;28.17;32.91
47716;BME280;33476;50.984;3.538;2022-07-29T10:43:43;101753.00;;;28.03;33.03
47716;BME280;33476;50.984;3.538;2022-07-29T10:46:10;101755.66;;;27.95;33.00
47716;BME280;33476;50.984;3.538;2022-07-29T10:49:14;101747.94;;;27.84;33.22
47716;BME280;33476;50.984;3.538;2022-07-29T10:52:05;101759.34;;;27.86;33.50
47716;BME280;33476;50.984;3.538;2022-07-29T10:59:44;101760.38;;;27.93;32.41
47716;BME280;33476;50.984;3.538;2022-07-29T11:07:23;101753.34;;;28.00;32.65
47716;BME280;33476;50.984;3.538;2022-07-29T11:15:20;101748.31;;;28.21;32.56
47716;BME280;33476;50.984;3.538;2022-07-29T11:20:41;101754.75;;;28.53;32.63
47716;BME280;33476;50.984;3.538;2022-07-29T11:23:26;101743.50;;;28.66;31.85
47716;BME280;33476;50.984;3.538;2022-07-29T11:28:42;101747.69;;;28.76;31.76
47716;BME280;33476;50.984;3.538;2022-07-29T11:31:16;101752.03;;;28.77;31.76
47716;BME280;33476;50.984;3.538;2022-07-29T11:33:43;101749.38;;;28.94;32.19
47716;BME280;33476;50.984;3.538;2022-07-29T11:36:15;101744.97;;;29.01;32.10
47716;BME280;33476;50.984;3.538;2022-07-29T11:38:41;101745.81;;;29.09;31.61
47716;BME280;33476;50.984;3.538;2022-07-29T11:41:27;101748.34;;;29.03;31.58
47716;BME280;33476;50.984;3.538;2022-07-29T11:43:59;101749.03;;;29.05;32.41
47716;BME280;33476;50.984;3.538;2022-07-29T11:49:11;101740.41;;;29.18;31.89
47716;BME280;33476;50.984;3.538;2022-07-29T11:51:37;101740.22;;;29.19;31.76
47716;BME280;33476;50.984;3.538;2022-07-29T11:54:04;101744.75;;;29.19;31.13
47716;BME280;33476;50.984;3.538;2022-07-29T11:56:31;101751.66;;;29.29;31.31
47716;BME280;33476;50.984;3.538;2022-07-29T11:59:06;101749.28;;;29.26;30.49
47716;BME280;33476;50.984;3.538;2022-07-29T12:01:34;101749.81;;;29.22;31.13
47716;BME280;33476;50.984;3.538;2022-07-29T12:04:05;101751.00;;;29.11;30.80
47716;BME280;33476;50.984;3.538;2022-07-29T12:06:35;101742.47;;;28.99;30.72
47716;BME280;33476;50.984;3.538;2022-07-29T12:09:00;101747.31;;;28.88;30.37
47716;BME280;33476;50.984;3.538;2022-07-29T12:11:31;101743.66;;;28.80;30.96
47716;BME280;33476;50.984;3.538;2022-07-29T12:13:56;101747.50;;;28.86;31.32
47716;BME280;33476;50.984;3.538;2022-07-29T12:16:22;101738.78;;;29.00;31.24
47716;BME280;33476;50.984;3.538;2022-07-29T12:18:59;101748.66;;;29.16;31.48
47716;BME280;33476;50.984;3.538;2022-07-29T12:21:25;101750.91;;;29.35;31.01
47716;BME280;33476;50.984;3.538;2022-07-29T12:23:54;101746.91;;;29.31;30.52
47716;BME280;33476;50.984;3.538;2022-07-29T12:26:20;101749.63;;;29.23;30.48
47716;BME280;33476;50.984;3.538;2022-07-29T12:28:46;101755.38;;;29.12;30.37
47716;BME280;33476;50.984;3.538;2022-07-29T12:31:15;101750.38;;;29.01;31.22
47716;BME280;33476;50.984;3.538;2022-07-29T12:33:41;101744.75;;;29.19;31.20
47716;BME280;33476;50.984;3.538;2022-07-29T12:36:07;101739.88;;;29.30;30.85
47716;BME280;33476;50.984;3.538;2022-07-29T12:38:34;101738.13;;;29.37;30.96
47716;BME280;33476;50.984;3.538;2022-07-29T12:41:00;101731.53;;;29.48;30.87
47716;BME280;33476;50.984;3.538;2022-07-29T12:43:26;101744.63;;;29.59;30.83
47716;BME280;33476;50.984;3.538;2022-07-29T12:45:53;101733.44;;;29.71;30.29
47716;BME280;33476;50.984;3.538;2022-07-29T12:48:37;101742.03;;;29.74;30.47
47716;BME280;33476;50.984;3.538;2022-07-29T12:51:04;101742.41;;;29.71;30.29
47716;BME280;33476;50.984;3.538;2022-07-29T12:53:30;101740.88;;;29.69;30.48
47716;BME280;33476;50.984;3.538;2022-07-29T12:55:57;101736.31;;;29.69;29.95
47716;BME280;33476;50.984;3.538;2022-07-29T12:58:36;101738.19;;;29.69;29.70
47716;BME280;33476;50.984;3.538;2022-07-29T13:03:50;101741.19;;;29.74;30.53
47716;BME280;33476;50.984;3.538;2022-07-29T13:06:29;101752.81;;;29.74;29.82
47716;BME280;33476;50.984;3.538;2022-07-29T13:09:14;101745.97;;;29.63;30.39
47716;BME280;33476;50.984;3.538;2022-07-29T13:11:45;101751.03;;;29.58;30.05
47716;BME280;33476;50.984;3.538;2022-07-29T13:22:12;101755.25;;;29.05;30.88
47716;BME280;33476;50.984;3.538;2022-07-29T13:24:48;101747.00;;;29.07;30.73
47716;BME280;33476;50.984;3.538;2022-07-29T13:27:18;101750.31;;;29.17;31.58
47716;BME280;33476;50.984;3.538;2022-07-29T13:29:44;101745.25;;;29.30;30.96
47716;BME280;33476;50.984;3.538;2022-07-29T13:32:09;101755.28;;;29.36;30.84
47716;BME280;33476;50.984;3.538;2022-07-29T13:34:35;101751.41;;;29.47;30.73
47716;BME280;33476;50.984;3.538;2022-07-29T13:37:00;101752.41;;;29.54;30.45
47716;BME280;33476;50.984;3.538;2022-07-29T13:39:26;101750.72;;;29.53;30.37
47716;BME280;33476;50.984;3.538;2022-07-29T13:41:51;101748.53;;;29.57;30.61
47716;BME280;33476;50.984;3.538;2022-07-29T13:44:16;101750.38;;;29.56;29.99